Isle of Bute, United Kingdom
Current Conditions -  °F | °C
As of 7:50 PM on Friday 31 Oct 2014 (Local Time) from EGPF Reporting Station
Moderate Rain Moderate Rain  
Wind Chill: 63°   Ceiling: 1500
Heat Index: 63°   Visibility: 3mi
Dew Point: 57°   Wind: 12mph
Humidity: 82%   Direction: 180°S
Pressure: 29.59"   Gusts: NA
Location:  55.84°N, 5.05°W
Report Text: EGPF 311950Z 18010KT 150V210 5000 RA BKN015TCU 17/14 Q1002
Loading
Personal Weather Stations






























Interactive Weather Map New forecast layout! Learn more

10-Day Weather Forecast

Advertisements
Track Severe Weather on mobile